< < Back
Terminal Aerodrome Forecast


Current Version              Previous Versions:   1  2  3  4  5  6  7  8  9  

Terminal Aerodrome Forecast

434
FTUS44 KBMX 271129
TAFMGM
TAF
KMGM 271129Z 2712/2812 32003KT 4SM BR SKC
     FM271300 36005KT P6SM FEW250
     FM280300 29002KT P6SM SKC=



Latest METAR

896
SAUS80 KWBC 281500 RRC
MTRMGM
METAR KMGM 281453Z 33005KT 10SM CLR 32/23 A3001 RMK AO2 SLP159 T03220233
50005


USA.gov is the U.S. government's official web portal to all federal, state and local government web resources and services.